createdAt,value
2023-03-07T06:41:09.488Z,256.00
2023-03-07T06:42:09.471Z,252.00
2023-03-07T06:43:09.484Z,272.00
2023-03-07T06:44:09.452Z,276.00
2023-03-07T06:45:09.440Z,276.00
2023-03-07T06:46:09.801Z,268.00
2023-03-07T06:47:09.417Z,252.00
2023-03-07T06:48:09.418Z,252.00
2023-03-07T06:49:09.402Z,272.00
2023-03-07T06:50:09.401Z,264.00
2023-03-07T06:51:09.412Z,252.00
2023-03-07T06:52:09.373Z,240.00
2023-03-07T06:53:09.361Z,224.00
2023-03-07T06:54:09.353Z,260.00
2023-03-07T06:55:09.344Z,296.00
2023-03-07T06:56:09.348Z,284.00
2023-03-07T06:57:09.329Z,272.00
2023-03-07T06:58:09.321Z,280.00
2023-03-07T06:59:09.309Z,316.00
2023-03-07T07:00:09.304Z,288.00
2023-03-07T07:01:09.321Z,280.00
2023-03-07T07:02:09.352Z,308.00
2023-03-07T07:03:09.423Z,348.00
2023-03-07T07:04:09.265Z,344.00
2023-03-07T07:05:09.250Z,336.00
2023-03-07T07:06:09.260Z,348.00
2023-03-07T07:07:09.230Z,392.00
2023-03-07T07:08:09.236Z,396.00
2023-03-07T07:09:09.216Z,392.00
2023-03-07T07:10:10.323Z,348.00
2023-03-07T07:11:10.318Z,336.00
2023-03-07T07:12:10.311Z,376.00
2023-03-07T07:13:10.309Z,376.00
2023-03-07T07:14:10.283Z,408.00
2023-03-07T07:15:10.288Z,424.00
2023-03-07T07:16:10.303Z,464.00
2023-03-07T07:17:10.263Z,516.00
2023-03-07T07:18:11.500Z,536.00
2023-03-07T07:19:11.237Z,548.00
2023-03-07T07:20:11.276Z,568.00
2023-03-07T07:21:10.243Z,584.00
2023-03-07T07:22:10.247Z,568.00
2023-03-07T07:23:10.234Z,720.00
2023-03-07T07:24:10.194Z,720.00
2023-03-07T07:25:10.193Z,856.00
2023-03-07T07:26:10.198Z,1072.00
2023-03-07T07:27:12.499Z,1104.00
2023-03-07T07:28:10.180Z,944.00
2023-03-07T07:29:10.168Z,1008.00
2023-03-07T07:30:10.146Z,960.00
2023-03-07T07:31:10.148Z,916.00
2023-03-07T07:32:10.312Z,972.00
2023-03-07T07:33:10.278Z,748.00
2023-03-07T07:34:10.110Z,744.00
2023-03-07T07:35:10.123Z,744.00
2023-03-07T07:36:10.117Z,696.00
2023-03-07T07:37:10.093Z,560.00
2023-03-07T07:38:10.086Z,552.00
2023-03-07T07:39:10.078Z,608.00
2023-03-07T07:40:10.063Z,656.00
2023-03-07T07:41:10.068Z,700.00
2023-03-07T07:42:10.051Z,672.00
2023-03-07T07:43:10.047Z,788.00
2023-03-07T07:44:10.032Z,776.00
2023-03-07T07:45:10.062Z,764.00
2023-03-07T07:46:10.037Z,676.00
2023-03-07T07:47:10.015Z,840.00
2023-03-07T07:48:10.004Z,832.00
2023-03-07T07:49:09.992Z,844.00
2023-03-07T07:50:09.996Z,748.00
2023-03-07T07:51:10.002Z,896.00
2023-03-07T07:52:09.969Z,840.00
2023-03-07T07:53:09.960Z,856.00
2023-03-07T07:54:09.957Z,1084.00
2023-03-07T07:55:09.949Z,1004.00
2023-03-07T07:56:09.957Z,1028.00
2023-03-07T07:57:09.923Z,912.00
2023-03-07T07:58:09.915Z,788.00
2023-03-07T07:59:09.908Z,756.00
2023-03-07T08:00:09.903Z,844.00
2023-03-07T08:01:09.906Z,744.00
2023-03-07T08:02:09.891Z,952.00
2023-03-07T08:03:09.892Z,784.00
2023-03-07T08:04:09.866Z,868.00
2023-03-07T08:05:09.870Z,764.00
2023-03-07T08:06:09.860Z,776.00
2023-03-07T08:07:09.835Z,732.00
2023-03-07T08:08:09.834Z,844.00
2023-03-07T08:09:09.862Z,776.00
2023-03-07T08:10:09.860Z,700.00
2023-03-07T08:11:09.818Z,704.00
2023-03-07T08:12:09.801Z,624.00
2023-03-07T08:13:09.795Z,592.00
2023-03-07T08:14:09.791Z,564.00
2023-03-07T08:15:09.776Z,548.00
2023-03-07T08:16:09.814Z,660.00
2023-03-07T08:17:09.788Z,716.00
2023-03-07T08:18:09.753Z,876.00
2023-03-07T08:19:09.744Z,728.00
2023-03-07T08:20:09.737Z,644.00
2023-03-07T08:21:09.745Z,700.00
2023-03-07T08:22:09.717Z,788.00
2023-03-07T08:23:09.721Z,728.00
2023-03-07T08:24:09.730Z,888.00
2023-03-07T08:25:09.696Z,936.00
2023-03-07T08:26:09.697Z,948.00
2023-03-07T08:27:09.679Z,948.00
2023-03-07T08:28:09.670Z,856.00
2023-03-07T08:29:09.667Z,864.00
2023-03-07T08:30:09.657Z,868.00
2023-03-07T08:31:09.719Z,904.00
2023-03-07T08:32:11.973Z,836.00
2023-03-07T08:33:09.627Z,948.00
2023-03-07T08:34:09.617Z,1040.00
2023-03-07T08:35:09.610Z,1084.00
2023-03-07T08:36:09.612Z,936.00
2023-03-07T08:37:09.590Z,744.00
2023-03-07T08:38:09.590Z,960.00
2023-03-07T08:39:09.584Z,1112.00
2023-03-07T08:40:09.572Z,1232.00
2023-03-07T08:41:09.707Z,1064.00
2023-03-07T08:42:09.590Z,1108.00
2023-03-07T08:43:09.548Z,1036.00
2023-03-07T08:44:09.541Z,1240.00
2023-03-07T08:45:09.530Z,1236.00
2023-03-07T08:46:09.550Z,956.00
2023-03-07T08:47:09.524Z,1148.00
2023-03-07T08:48:09.505Z,1060.00
2023-03-07T08:49:09.492Z,1024.00
2023-03-07T08:50:09.518Z,996.00
2023-03-07T08:51:09.720Z,856.00
2023-03-07T08:52:09.483Z,848.00
2023-03-07T08:53:09.494Z,796.00
2023-03-07T08:54:09.475Z,784.00
2023-03-07T08:55:09.445Z,788.00
2023-03-07T08:56:09.473Z,792.00
2023-03-07T08:57:09.431Z,872.00
2023-03-07T08:58:09.428Z,1136.00
2023-03-07T08:59:09.410Z,1360.00
2023-03-07T09:00:09.406Z,1568.00
2023-03-07T09:01:09.403Z,1416.00
2023-03-07T09:02:09.440Z,1472.00
2023-03-07T09:03:09.387Z,1560.00
2023-03-07T09:04:09.365Z,1312.00
2023-03-07T09:05:09.466Z,1532.00
2023-03-07T09:06:09.367Z,1592.00
2023-03-07T09:07:09.389Z,1272.00
2023-03-07T09:08:09.333Z,1372.00
2023-03-07T09:09:09.323Z,1148.00
2023-03-07T09:10:09.320Z,1336.00
2023-03-07T09:11:09.346Z,1484.00
2023-03-07T09:12:09.294Z,1348.00
2023-03-07T09:13:09.300Z,1684.00
2023-03-07T09:14:09.280Z,1600.00
2023-03-07T09:15:09.284Z,1784.00
2023-03-07T09:16:09.313Z,1608.00
2023-03-07T09:17:09.261Z,1312.00
2023-03-07T09:18:09.257Z,1240.00
2023-03-07T09:19:09.234Z,1344.00
2023-03-07T09:20:09.234Z,1464.00
2023-03-07T09:21:09.225Z,2004.00
2023-03-07T09:22:09.226Z,2000.00
2023-03-07T09:23:09.202Z,1396.00
2023-03-07T09:24:09.193Z,1312.00
2023-03-07T09:25:09.186Z,1464.00
2023-03-07T09:26:09.179Z,1764.00
2023-03-07T09:27:09.180Z,1596.00
2023-03-07T09:28:09.159Z,2284.00
2023-03-07T09:29:09.149Z,2128.00
2023-03-07T09:30:09.140Z,1456.00
2023-03-07T09:31:09.171Z,2024.00
2023-03-07T09:32:09.199Z,1668.00
2023-03-07T09:33:09.119Z,1336.00
2023-03-07T09:34:09.135Z,1612.00
2023-03-07T09:35:09.105Z,1672.00
2023-03-07T09:36:09.102Z,2532.00
2023-03-07T09:37:09.111Z,2084.00
2023-03-07T09:38:09.076Z,2044.00
2023-03-07T09:39:09.064Z,2300.00
2023-03-07T09:40:09.055Z,3208.00
2023-03-07T09:41:09.051Z,3920.00
2023-03-07T09:42:09.052Z,3140.00
2023-03-07T09:43:09.046Z,3164.00
2023-03-07T09:44:09.023Z,1804.00
2023-03-07T09:45:09.030Z,1848.00
2023-03-07T09:46:09.051Z,2148.00
2023-03-07T09:47:09.016Z,1736.00
2023-03-07T09:48:08.997Z,2148.00
2023-03-07T09:49:08.980Z,2148.00
2023-03-07T09:50:08.973Z,2144.00
2023-03-07T09:51:11.858Z,2204.00
2023-03-07T09:52:10.394Z,1416.00
2023-03-07T09:53:09.988Z,1556.00
2023-03-07T09:54:08.937Z,1580.00
2023-03-07T09:55:08.921Z,1552.00
2023-03-07T09:56:08.922Z,1712.00
2023-03-07T09:57:08.927Z,1508.00
2023-03-07T09:58:08.898Z,1792.00
2023-03-07T09:59:21.976Z,1732.00
2023-03-07T10:00:10.887Z,1912.00
2023-03-07T10:01:08.880Z,3392.00
2023-03-07T10:02:08.873Z,2560.00
2023-03-07T10:03:08.906Z,1936.00
2023-03-07T10:04:08.881Z,1428.00
2023-03-07T10:05:08.851Z,1212.00
2023-03-07T10:06:08.828Z,1464.00
2023-03-07T10:07:08.837Z,1448.00
2023-03-07T10:08:08.814Z,1624.00
2023-03-07T10:09:08.846Z,1728.00
2023-03-07T10:10:08.794Z,1760.00
2023-03-07T10:11:08.799Z,1748.00
2023-03-07T10:12:08.785Z,1460.00
2023-03-07T10:13:08.781Z,1404.00
2023-03-07T10:14:08.758Z,1764.00
2023-03-07T10:15:08.762Z,1484.00
2023-03-07T10:16:08.748Z,1500.00
2023-03-07T10:17:08.741Z,1620.00
2023-03-07T10:18:08.721Z,1492.00
2023-03-07T10:19:08.728Z,1800.00
2023-03-07T10:20:09.713Z,1604.00
2023-03-07T10:21:08.720Z,1692.00
2023-03-07T10:22:08.711Z,1596.00
2023-03-07T10:23:08.687Z,1512.00
2023-03-07T10:24:08.675Z,1540.00
2023-03-07T10:25:08.665Z,1412.00
2023-03-07T10:26:08.659Z,1768.00
2023-03-07T10:27:08.673Z,1884.00
2023-03-07T10:28:08.642Z,1656.00
2023-03-07T10:29:08.633Z,1412.00
2023-03-07T10:30:08.624Z,1716.00
2023-03-07T10:31:08.613Z,1368.00
2023-03-07T10:32:08.720Z,1236.00
2023-03-07T10:33:08.593Z,1472.00
2023-03-07T10:34:08.580Z,1260.00
2023-03-07T10:35:08.577Z,1052.00
2023-03-07T10:36:08.616Z,972.00
2023-03-07T10:37:09.507Z,1548.00
2023-03-07T10:38:09.557Z,1404.00
2023-03-07T10:39:40.454Z,1388.00
2023-03-07T10:40:08.530Z,1400.00
2023-03-07T10:41:08.524Z,1164.00
2023-03-07T10:42:08.527Z,1196.00
2023-03-07T10:43:08.508Z,1224.00
2023-03-07T10:44:08.495Z,1028.00
2023-03-07T10:45:08.487Z,1064.00
2023-03-07T10:46:22.380Z,1044.00
2023-03-07T10:47:10.502Z,1448.00
2023-03-07T10:48:08.470Z,1528.00
2023-03-07T10:49:10.458Z,1792.00
2023-03-07T10:50:09.437Z,1228.00
2023-03-07T10:51:08.433Z,1188.00
2023-03-07T10:52:08.442Z,1188.00
2023-03-07T10:53:08.415Z,1268.00
2023-03-07T10:54:08.425Z,1836.00
2023-03-07T10:55:08.398Z,1644.00
2023-03-07T10:56:08.394Z,1528.00
2023-03-07T10:57:08.533Z,1420.00
2023-03-07T10:58:08.376Z,1716.00
2023-03-07T10:59:08.389Z,1872.00
2023-03-07T11:00:08.382Z,1840.00
2023-03-07T11:01:08.560Z,1496.00
2023-03-07T11:02:08.360Z,1384.00
2023-03-07T11:03:08.338Z,1748.00
2023-03-07T11:04:08.322Z,2116.00
2023-03-07T11:05:08.343Z,1976.00
2023-03-07T11:06:08.308Z,1992.00
2023-03-07T11:07:08.312Z,2040.00
2023-03-07T11:08:08.293Z,1840.00
2023-03-07T11:09:08.282Z,1460.00
2023-03-07T11:10:08.273Z,1472.00
2023-03-07T11:11:08.265Z,1980.00
2023-03-07T11:12:08.266Z,2196.00
2023-03-07T11:13:08.260Z,1776.00
2023-03-07T11:14:08.238Z,2080.00
2023-03-07T11:15:08.231Z,2400.00
2023-03-07T11:16:11.394Z,2840.00
2023-03-07T11:17:09.221Z,3040.00
2023-03-07T11:18:08.206Z,2892.00
2023-03-07T11:19:08.193Z,2664.00
2023-03-07T11:20:08.184Z,2424.00
2023-03-07T11:21:08.176Z,2088.00
2023-03-07T11:22:08.175Z,2344.00
2023-03-07T11:23:08.159Z,2068.00
2023-03-07T11:24:08.237Z,1944.00
2023-03-07T11:25:08.141Z,2280.00
2023-03-07T11:26:08.127Z,2776.00
2023-03-07T11:27:08.138Z,2804.00
2023-03-07T11:28:08.109Z,2436.00
2023-03-07T11:29:08.103Z,2436.00
2023-03-07T11:30:08.101Z,2072.00
2023-03-07T11:31:08.116Z,1744.00
2023-03-07T11:32:08.177Z,2224.00
2023-03-07T11:33:08.076Z,1868.00
2023-03-07T11:34:08.062Z,1816.00
2023-03-07T11:35:08.056Z,1480.00
2023-03-07T11:36:08.111Z,1316.00
2023-03-07T11:37:08.042Z,1264.00
2023-03-07T11:38:08.031Z,1420.00
2023-03-07T11:39:08.037Z,1224.00
2023-03-07T11:40:08.010Z,1072.00
2023-03-07T11:41:08.001Z,1256.00
2023-03-07T11:42:08.003Z,1500.00
2023-03-07T11:43:07.986Z,1424.00
2023-03-07T11:44:08.003Z,1596.00
2023-03-07T11:45:07.973Z,1708.00
2023-03-07T11:46:08.059Z,1516.00
2023-03-07T11:47:07.974Z,1392.00
2023-03-07T11:48:07.963Z,1772.00
2023-03-07T11:49:07.941Z,1640.00
2023-03-07T11:50:07.929Z,1444.00
2023-03-07T11:51:07.928Z,1740.00
2023-03-07T11:52:07.939Z,1752.00
2023-03-07T11:53:07.902Z,1260.00
2023-03-07T11:54:07.895Z,1564.00
2023-03-07T11:55:07.886Z,1964.00
2023-03-07T11:56:07.875Z,1512.00
2023-03-07T11:57:07.883Z,1468.00
2023-03-07T11:58:08.548Z,1516.00
2023-03-07T11:59:07.914Z,1764.00
2023-03-07T12:00:07.846Z,1748.00
2023-03-07T12:01:07.837Z,1660.00
2023-03-07T12:02:07.849Z,1760.00
2023-03-07T12:03:07.859Z,1568.00
2023-03-07T12:04:07.814Z,1812.00
2023-03-07T12:05:07.824Z,1832.00
2023-03-07T12:06:07.856Z,2032.00
2023-03-07T12:07:07.801Z,2372.00
2023-03-07T12:08:07.801Z,2108.00
2023-03-07T12:09:07.774Z,2172.00
2023-03-07T12:10:07.763Z,1760.00
2023-03-07T12:11:07.762Z,1848.00
2023-03-07T12:12:07.764Z,2060.00
2023-03-07T12:13:07.742Z,2176.00
2023-03-07T12:14:07.731Z,1792.00
2023-03-07T12:15:07.718Z,1612.00
2023-03-07T12:16:07.770Z,1440.00
2023-03-07T12:17:07.714Z,1312.00
2023-03-07T12:18:07.699Z,1060.00
2023-03-07T12:19:07.687Z,988.00
2023-03-07T12:20:07.683Z,1244.00
2023-03-07T12:21:07.676Z,980.00
2023-03-07T12:22:07.671Z,996.00
2023-03-07T12:23:07.653Z,960.00
2023-03-07T12:24:07.649Z,920.00
2023-03-07T12:25:07.658Z,856.00
2023-03-07T12:26:07.631Z,828.00
2023-03-07T12:27:07.639Z,1016.00
2023-03-07T12:28:07.608Z,1076.00
2023-03-07T12:29:07.607Z,976.00
2023-03-07T12:30:07.631Z,1044.00
2023-03-07T12:31:07.614Z,848.00
2023-03-07T12:32:07.797Z,904.00
2023-03-07T12:33:07.774Z,728.00
2023-03-07T12:34:07.566Z,672.00
2023-03-07T12:35:07.562Z,640.00
2023-03-07T12:36:07.613Z,520.00
2023-03-07T12:37:07.546Z,428.00
2023-03-07T12:38:07.545Z,416.00
2023-03-07T12:39:07.522Z,468.00
2023-03-07T12:40:07.520Z,428.00
2023-03-07T12:41:07.503Z,420.00
2023-03-07T12:42:07.509Z,452.00
2023-03-07T12:43:07.489Z,460.00
2023-03-07T12:44:07.486Z,480.00
2023-03-07T12:45:07.475Z,476.00
2023-03-07T12:46:07.509Z,528.00
2023-03-07T12:47:07.475Z,564.00
2023-03-07T12:48:07.446Z,540.00
2023-03-07T12:49:07.437Z,544.00
2023-03-07T12:50:07.436Z,472.00
2023-03-07T12:51:07.425Z,440.00
2023-03-07T12:52:07.434Z,448.00
2023-03-07T12:53:07.404Z,540.00
2023-03-07T12:54:07.397Z,584.00
2023-03-07T12:55:07.386Z,656.00
2023-03-07T12:56:07.381Z,552.00
2023-03-07T12:57:07.369Z,612.00
2023-03-07T12:58:07.373Z,700.00
2023-03-07T12:59:07.364Z,652.00
2023-03-07T13:00:07.344Z,744.00
2023-03-07T13:01:07.363Z,856.00
2023-03-07T13:02:07.327Z,780.00
2023-03-07T13:03:07.321Z,692.00
2023-03-07T13:04:07.326Z,712.00
2023-03-07T13:05:07.301Z,720.00
2023-03-07T13:06:07.287Z,756.00
2023-03-07T13:07:07.288Z,840.00
2023-03-07T13:08:07.282Z,876.00
2023-03-07T13:09:07.262Z,820.00
2023-03-07T13:10:07.261Z,796.00
2023-03-07T13:11:07.250Z,768.00
2023-03-07T13:12:07.246Z,784.00
2023-03-07T13:13:07.240Z,824.00
2023-03-07T13:14:07.216Z,792.00
2023-03-07T13:15:07.212Z,780.00
2023-03-07T13:16:07.195Z,804.00
2023-03-07T13:17:07.189Z,856.00
2023-03-07T13:18:07.197Z,808.00
2023-03-07T13:19:07.173Z,768.00
2023-03-07T13:20:07.167Z,784.00
2023-03-07T13:21:07.156Z,760.00
2023-03-07T13:22:07.150Z,772.00
2023-03-07T13:23:07.224Z,792.00
2023-03-07T13:24:07.126Z,720.00
2023-03-07T13:25:07.120Z,736.00
2023-03-07T13:26:07.136Z,792.00
2023-03-07T13:27:07.136Z,704.00
2023-03-07T13:28:07.112Z,632.00
2023-03-07T13:29:07.088Z,704.00
2023-03-07T13:30:07.081Z,804.00
2023-03-07T13:31:07.098Z,852.00
2023-03-07T13:32:07.082Z,820.00
2023-03-07T13:33:07.056Z,812.00
2023-03-07T13:34:07.035Z,856.00
2023-03-07T13:35:07.032Z,844.00
2023-03-07T13:36:07.016Z,832.00
2023-03-07T13:37:07.023Z,876.00
2023-03-07T13:38:07.012Z,992.00
2023-03-07T13:39:07.000Z,984.00
2023-03-07T13:40:06.981Z,1024.00
2023-03-07T13:41:06.978Z,1024.00
2023-03-07T13:42:06.967Z,924.00
2023-03-07T13:43:06.966Z,948.00
2023-03-07T13:44:06.959Z,1036.00
2023-03-07T13:45:06.952Z,1032.00
2023-03-07T13:46:06.973Z,996.00
2023-03-07T13:47:06.930Z,952.00
2023-03-07T13:48:06.930Z,904.00
2023-03-07T13:49:06.910Z,896.00
2023-03-07T13:50:06.902Z,912.00
2023-03-07T13:51:06.880Z,936.00
2023-03-07T13:52:07.881Z,908.00
2023-03-07T13:53:06.883Z,908.00
2023-03-07T13:54:06.872Z,928.00
2023-03-07T13:55:06.860Z,928.00
2023-03-07T13:56:06.849Z,928.00
2023-03-07T13:57:06.836Z,928.00
2023-03-07T13:58:06.861Z,948.00
2023-03-07T13:59:06.833Z,956.00
2023-03-07T14:00:06.813Z,980.00
2023-03-07T14:01:06.819Z,972.00
2023-03-07T14:02:06.800Z,932.00
2023-03-07T14:03:06.803Z,916.00
2023-03-07T14:04:06.791Z,912.00
2023-03-07T14:05:06.778Z,924.00
2023-03-07T14:06:06.766Z,932.00
2023-03-07T14:07:06.760Z,948.00
2023-03-07T14:08:06.761Z,960.00
2023-03-07T14:09:06.754Z,952.00
2023-03-07T14:10:19.654Z,964.00
2023-03-07T14:11:08.771Z,960.00
2023-03-07T14:12:06.718Z,936.00
2023-03-07T14:13:06.722Z,932.00
2023-03-07T14:14:06.705Z,948.00
2023-03-07T14:15:06.694Z,960.00
2023-03-07T14:16:06.805Z,992.00
2023-03-07T14:17:06.677Z,1000.00
2023-03-07T14:18:06.696Z,1020.00
2023-03-07T14:19:06.663Z,1024.00
2023-03-07T14:20:06.651Z,1028.00
2023-03-07T14:21:06.640Z,996.00
2023-03-07T14:22:06.635Z,956.00
2023-03-07T14:23:06.632Z,948.00
2023-03-07T14:24:06.626Z,936.00
2023-03-07T14:25:06.612Z,920.00
2023-03-07T14:26:06.620Z,912.00
2023-03-07T14:27:06.598Z,896.00
2023-03-07T14:28:06.608Z,872.00
2023-03-07T14:29:06.577Z,836.00
2023-03-07T14:30:06.570Z,820.00
2023-03-07T14:31:06.644Z,808.00
2023-03-07T14:32:06.574Z,820.00
2023-03-07T14:33:06.566Z,828.00
2023-03-07T14:34:06.540Z,844.00
2023-03-07T14:35:06.538Z,848.00
2023-03-07T14:36:06.537Z,864.00
2023-03-07T14:37:06.543Z,856.00
2023-03-07T14:38:06.525Z,824.00
2023-03-07T14:39:06.506Z,780.00
2023-03-07T14:40:06.537Z,768.00
2023-03-07T14:41:06.499Z,764.00
2023-03-07T14:42:06.471Z,752.00
2023-03-07T14:43:06.475Z,748.00
2023-03-07T14:44:06.459Z,740.00
2023-03-07T14:45:06.441Z,720.00
2023-03-07T14:46:06.453Z,708.00
2023-03-07T14:47:06.425Z,740.00
2023-03-07T14:48:06.435Z,748.00
2023-03-07T14:49:06.410Z,760.00
2023-03-07T14:50:06.496Z,768.00
2023-03-07T14:51:06.382Z,776.00
2023-03-07T14:52:07.379Z,780.00
2023-03-07T14:53:06.379Z,776.00
2023-03-07T14:54:06.361Z,748.00
2023-03-07T14:55:06.353Z,700.00
2023-03-07T14:56:06.346Z,676.00
2023-03-07T14:57:06.344Z,648.00
2023-03-07T14:58:06.336Z,640.00
2023-03-07T14:59:06.324Z,632.00
2023-03-07T15:00:06.361Z,612.00
2023-03-07T15:01:06.299Z,612.00
2023-03-07T15:02:06.343Z,608.00
2023-03-07T15:03:06.296Z,584.00
2023-03-07T15:04:06.327Z,548.00
2023-03-07T15:05:06.267Z,500.00
2023-03-07T15:06:06.260Z,456.00
2023-03-07T15:07:06.262Z,420.00
2023-03-07T15:08:06.257Z,388.00
2023-03-07T15:09:06.234Z,364.00
2023-03-07T15:10:06.282Z,364.00
2023-03-07T15:11:06.219Z,364.00
2023-03-07T15:12:06.208Z,360.00
2023-03-07T15:13:06.287Z,352.00
2023-03-07T15:14:06.194Z,340.00
2023-03-07T15:15:06.186Z,324.00
2023-03-07T15:16:06.211Z,312.00
2023-03-07T15:17:06.168Z,300.00
2023-03-07T15:18:06.182Z,288.00
2023-03-07T15:19:06.149Z,280.00
2023-03-07T15:20:06.204Z,276.00
2023-03-07T15:21:06.134Z,288.00
2023-03-07T15:22:06.130Z,288.00
2023-03-07T15:23:06.117Z,288.00
2023-03-07T15:24:06.123Z,272.00
2023-03-07T15:25:06.108Z,260.00
2023-03-07T15:26:06.100Z,252.00
2023-03-07T15:27:06.089Z,240.00
2023-03-07T15:28:06.081Z,232.00
2023-03-07T15:29:06.097Z,224.00
2023-03-07T15:30:06.152Z,220.00
2023-03-07T15:31:06.148Z,224.00
2023-03-07T15:32:06.085Z,232.00
2023-03-07T15:33:06.092Z,228.00
2023-03-07T15:34:06.075Z,232.00
2023-03-07T15:35:06.025Z,244.00
2023-03-07T15:36:06.074Z,244.00
2023-03-07T15:37:06.006Z,248.00
2023-03-07T15:38:06.006Z,256.00
2023-03-07T15:39:05.997Z,260.00
2023-03-07T15:40:06.010Z,268.00
2023-03-07T15:41:05.970Z,272.00
2023-03-07T15:42:05.975Z,272.00
2023-03-07T15:43:05.961Z,276.00
2023-03-07T15:44:05.953Z,268.00
2023-03-07T15:45:05.935Z,252.00
2023-03-07T15:46:06.091Z,232.00
2023-03-07T15:47:05.920Z,224.00
2023-03-07T15:48:05.923Z,212.00
2023-03-07T15:49:05.916Z,212.00
2023-03-07T15:50:05.945Z,216.00
2023-03-07T15:51:05.889Z,224.00
2023-03-07T15:52:05.882Z,220.00
2023-03-07T15:53:05.869Z,220.00
2023-03-07T15:54:05.872Z,228.00
2023-03-07T15:55:05.855Z,232.00
2023-03-07T15:56:05.847Z,244.00
2023-03-07T15:57:05.840Z,248.00
2023-03-07T15:58:05.825Z,256.00
2023-03-07T15:59:05.825Z,252.00
2023-03-07T16:00:05.820Z,248.00
2023-03-07T16:01:05.817Z,248.00
2023-03-07T16:02:05.813Z,248.00
2023-03-07T16:03:05.854Z,244.00
2023-03-07T16:04:05.846Z,240.00
2023-03-07T16:05:05.767Z,232.00
2023-03-07T16:06:05.759Z,224.00
2023-03-07T16:07:05.751Z,216.00
2023-03-07T16:08:05.737Z,204.00
2023-03-07T16:09:05.744Z,188.00
2023-03-07T16:10:05.721Z,176.00
2023-03-07T16:11:05.708Z,160.00
2023-03-07T16:12:05.705Z,148.00
2023-03-07T16:13:05.701Z,140.00
2023-03-07T16:14:05.695Z,140.00
2023-03-07T16:15:05.684Z,136.00
2023-03-07T16:16:05.732Z,132.00
2023-03-07T16:17:05.660Z,120.00
2023-03-07T16:18:05.650Z,116.00
2023-03-07T16:19:05.654Z,108.00
2023-03-07T16:20:05.639Z,100.00
2023-03-07T16:21:05.631Z,100.00
2023-03-07T16:22:05.616Z,96.00
2023-03-07T16:23:05.611Z,96.00
2023-03-07T16:24:05.613Z,92.00
2023-03-07T16:25:05.597Z,92.00
2023-03-07T16:26:05.598Z,88.00
2023-03-07T16:27:05.581Z,80.00
2023-03-07T16:28:05.568Z,76.00
2023-03-07T16:29:05.574Z,76.00
2023-03-07T16:30:05.550Z,76.00
2023-03-07T16:31:05.547Z,76.00
2023-03-07T16:32:05.689Z,72.00
2023-03-07T16:33:05.548Z,68.00
2023-03-07T16:34:05.529Z,64.00
2023-03-07T16:35:05.507Z,60.00
2023-03-07T16:36:05.540Z,60.00
2023-03-07T16:37:05.487Z,64.00
2023-03-07T16:38:05.483Z,64.00
2023-03-07T16:39:05.494Z,64.00
2023-03-07T16:40:11.754Z,60.00
2023-03-07T16:41:05.467Z,56.00
2023-03-07T16:42:05.449Z,52.00
2023-03-07T16:43:05.441Z,56.00
2023-03-07T16:44:05.446Z,56.00
2023-03-07T16:45:05.422Z,60.00
2023-03-07T16:46:05.513Z,56.00
2023-03-07T16:47:05.406Z,56.00
2023-03-07T16:48:05.403Z,52.00
2023-03-07T16:49:05.407Z,48.00
2023-03-07T16:50:05.382Z,48.00
2023-03-07T16:51:05.373Z,44.00
2023-03-07T16:52:06.706Z,44.00
2023-03-07T16:53:06.361Z,40.00
2023-03-07T16:54:05.358Z,40.00
2023-03-07T16:55:05.372Z,36.00
2023-03-07T16:56:05.326Z,36.00
2023-03-07T16:57:05.322Z,32.00
2023-03-07T16:58:05.325Z,32.00
2023-03-07T16:59:06.314Z,28.00
2023-03-07T17:00:05.291Z,24.00
2023-03-07T17:01:05.332Z,24.00
2023-03-07T17:02:05.316Z,24.00
2023-03-07T17:03:05.271Z,20.00
2023-03-07T17:04:05.273Z,20.00
2023-03-07T17:05:05.253Z,20.00
2023-03-07T17:06:05.244Z,20.00
2023-03-07T17:07:05.362Z,20.00
2023-03-07T17:08:05.233Z,20.00
2023-03-07T17:09:05.234Z,16.00
2023-03-07T17:10:06.133Z,16.00
2023-03-07T17:11:05.207Z,16.00
2023-03-07T17:12:05.198Z,16.00
2023-03-07T17:13:05.187Z,12.00
2023-03-07T17:14:05.219Z,8.00
2023-03-07T17:15:05.178Z,12.00
2023-03-07T17:16:05.199Z,8.00
2023-03-07T17:17:05.154Z,8.00
2023-03-07T17:18:05.148Z,8.00
2023-03-07T17:19:05.148Z,4.00
2023-03-07T17:20:05.128Z,4.00
2023-03-07T17:21:05.177Z,4.00
2023-03-07T17:22:05.108Z,4.00
2023-03-07T17:23:05.101Z,4.00
2023-03-07T17:24:05.107Z,4.00
2023-03-07T17:25:05.092Z,0.00
2023-03-07T17:26:05.088Z,0.00
2023-03-07T17:27:05.070Z,4.00
2023-03-07T17:28:05.062Z,4.00
2023-03-07T17:29:05.062Z,0.00
2023-03-07T17:30:05.050Z,0.00
2023-03-07T17:31:05.066Z,0.00
2023-03-07T17:32:05.069Z,0.00
2023-03-07T17:33:05.025Z,0.00
2023-03-07T17:34:05.017Z,0.00
2023-03-07T17:35:05.005Z,0.00
2023-03-07T17:36:05.033Z,0.00
2023-03-07T17:37:04.985Z,0.00
2023-03-07T17:38:04.975Z,0.00
2023-03-07T17:39:06.976Z,0.00
2023-03-07T17:40:04.959Z,0.00
2023-03-07T17:41:04.954Z,0.00
2023-03-07T17:42:04.940Z,0.00
2023-03-07T17:43:04.933Z,0.00
2023-03-07T17:44:04.930Z,0.00
2023-03-07T17:45:04.911Z,0.00
2023-03-07T17:46:04.931Z,0.00
2023-03-07T17:47:04.893Z,0.00
2023-03-07T17:48:04.884Z,0.00
2023-03-07T17:49:04.888Z,0.00
2023-03-07T17:50:04.873Z,0.00
2023-03-07T17:51:04.860Z,0.00
2023-03-07T17:52:04.853Z,0.00
2023-03-07T17:53:04.838Z,0.00
2023-03-07T17:54:04.839Z,0.00
2023-03-07T17:55:04.851Z,0.00
2023-03-07T17:56:04.817Z,0.00
2023-03-07T17:57:04.811Z,0.00
2023-03-07T17:58:04.797Z,0.00
2023-03-07T17:59:04.797Z,0.00
2023-03-07T18:00:04.774Z,0.00
2023-03-07T18:01:05.773Z,0.00
2023-03-07T18:02:04.762Z,0.00
2023-03-07T18:03:04.817Z,0.00
2023-03-07T18:04:04.751Z,0.00
2023-03-07T18:05:04.739Z,0.00
2023-03-07T18:06:04.736Z,0.00
2023-03-07T18:07:04.765Z,0.00
2023-03-07T18:08:04.713Z,0.00
2023-03-07T18:09:04.724Z,0.00
2023-03-07T18:10:08.340Z,0.00
2023-03-07T18:11:05.700Z,0.00
2023-03-07T18:12:04.680Z,0.00
2023-03-07T18:13:04.668Z,0.00
2023-03-07T18:14:04.669Z,0.00
2023-03-07T18:15:04.652Z,0.00
2023-03-07T18:16:04.676Z,0.00
2023-03-07T18:17:04.649Z,0.00
2023-03-07T18:18:04.625Z,0.00
2023-03-07T18:19:05.778Z,0.00
2023-03-07T18:20:05.611Z,0.00
2023-03-07T18:21:04.601Z,0.00
2023-03-07T18:22:04.620Z,0.00
2023-03-07T18:23:04.586Z,0.00
2023-03-07T18:24:04.585Z,0.00
2023-03-07T18:25:04.568Z,0.00
2023-03-07T18:26:04.560Z,0.00
2023-03-07T18:27:04.553Z,0.00
2023-03-07T18:28:04.585Z,0.00
2023-03-07T18:29:04.542Z,0.00
2023-03-07T18:30:04.528Z,0.00
2023-03-07T18:31:04.563Z,0.00
2023-03-07T18:32:04.526Z,0.00
2023-03-07T18:33:04.505Z,0.00
2023-03-07T18:34:04.516Z,0.00
2023-03-07T18:35:04.483Z,0.00
2023-03-07T18:36:04.499Z,0.00
2023-03-07T18:37:04.482Z,0.00
2023-03-07T18:38:04.455Z,0.00
2023-03-07T18:39:04.457Z,0.00
2023-03-07T18:40:04.454Z,0.00
2023-03-07T18:41:04.478Z,0.00
2023-03-07T18:42:04.429Z,0.00
2023-03-07T18:43:04.441Z,0.00
2023-03-07T18:44:04.406Z,0.00
2023-03-07T18:45:04.413Z,0.00
2023-03-07T18:46:04.379Z,0.00
2023-03-07T18:47:04.412Z,0.00
2023-03-07T18:48:04.374Z,0.00
2023-03-07T18:49:04.367Z,0.00
2023-03-07T18:50:04.365Z,0.00
2023-03-07T18:51:04.338Z,0.00
2023-03-07T18:52:04.334Z,0.00
2023-03-07T18:53:04.329Z,0.00
2023-03-07T18:54:04.314Z,0.00
2023-03-07T18:55:04.332Z,0.00
2023-03-07T18:56:04.297Z,0.00
2023-03-07T18:57:04.290Z,0.00
2023-03-07T18:58:04.277Z,0.00
2023-03-07T18:59:04.275Z,0.00
2023-03-07T19:00:04.274Z,0.00
2023-03-07T19:01:04.283Z,0.00
2023-03-07T19:02:04.315Z,0.00
2023-03-07T19:03:04.241Z,0.00
2023-03-07T19:04:04.225Z,0.00
2023-03-07T19:05:04.229Z,0.00
2023-03-07T19:06:04.220Z,0.00
2023-03-07T19:07:04.200Z,0.00
2023-03-07T19:08:04.198Z,0.00
2023-03-07T19:09:04.190Z,0.00
2023-03-07T19:10:04.199Z,0.00
2023-03-07T19:11:04.200Z,0.00